Time;durP1;ratioP1;P1;durP2;ratioP2;P2;SDS_P1;SDS_P2;PMS_P1;PMS_P2;Temp;Humidity;BMP_temperature;BMP_pressure;BME280_temperature;BME280_humidity;BME280_pressure;Samples;Min_cycle;Max_cycle;Signal;HPM_P1;HPM_P2
2021/05/26 00:00:41;;;;;;;175.55;45.75;;;;;;;16.15;79.90;101758.59;1769969;81;21408;-74
2021/05/26 00:03:14;;;;;;;172.02;42.03;;;;;;;16.13;79.95;101748.77;1769895;81;21734;-75
2021/05/26 00:05:48;;;;;;;170.60;42.75;;;;;;;16.10;79.88;101748.75;1770061;81;21210;-74
2021/05/26 00:08:32;;;;;;;141.53;38.75;;;;;;;16.08;79.84;101744.53;1770304;81;21783;-68
2021/05/26 00:11:11;;;;;;;153.93;39.92;;;;;;;16.03;80.02;101740.56;1770315;80;21392;-75
2021/05/26 00:13:44;;;;;;;124.10;35.08;;;;;;;16.05;79.98;101744.50;1762225;79;21449;-65
2021/05/26 00:16:19;;;;;;;115.37;32.17;;;;;;;16.01;79.88;101736.92;1758562;81;21691;-66
2021/05/26 00:18:53;;;;;;;101.40;31.02;;;;;;;15.93;79.94;101734.61;1724484;83;21332;-68
2021/05/26 00:21:26;;;;;;;101.95;33.50;;;;;;;15.89;80.17;101737.11;1758774;81;21366;-67
2021/05/26 00:23:58;;;;;;;101.85;30.40;;;;;;;15.90;80.40;101736.56;1724766;83;21209;-67
2021/05/26 00:26:31;;;;;;;92.23;30.87;;;;;;;15.92;80.46;101735.73;1759070;81;21362;-67
2021/05/26 00:29:04;;;;;;;65.80;22.37;;;;;;;15.88;80.43;101736.82;1723904;82;21190;-68
2021/05/26 00:31:37;;;;;;;37.03;17.17;;;;;;;15.82;80.84;101730.08;1747496;82;21636;-67
2021/05/26 00:34:10;;;;;;;69.58;22.58;;;;;;;15.75;81.82;101734.50;1747959;82;21206;-68
2021/05/26 00:36:43;;;;;;;54.13;21.57;;;;;;;15.73;82.22;101729.73;1747903;82;21229;-67
2021/05/26 00:39:16;;;;;;;46.28;20.97;;;;;;;15.73;82.25;101731.13;1747643;82;21375;-66
2021/05/26 00:41:49;;;;;;;32.03;15.63;;;;;;;15.73;82.66;101731.13;1747657;82;21332;-68
2021/05/26 00:44:22;;;;;;;22.75;13.22;;;;;;;15.71;82.94;101731.94;1747713;82;21333;-68
2021/05/26 00:46:54;;;;;;;22.40;12.58;;;;;;;15.73;83.88;101733.08;1747873;82;21202;-67
2021/05/26 00:49:27;;;;;;;22.82;14.28;;;;;;;15.75;84.65;101734.50;1747709;82;21325;-68
2021/05/26 00:52:00;;;;;;;33.70;16.48;;;;;;;15.75;84.82;101733.64;1747566;81;21830;-67
2021/05/26 00:54:33;;;;;;;26.87;15.83;;;;;;;15.79;84.83;101727.25;1747651;82;21372;-67
2021/05/26 00:57:06;;;;;;;29.52;15.68;;;;;;;15.83;84.55;101721.37;1747515;81;21199;-67
2021/05/26 00:59:39;;;;;;;24.23;13.65;;;;;;;15.88;84.50;101724.22;1747786;82;21371;-67
2021/05/26 01:02:11;;;;;;;27.60;13.65;;;;;;;15.98;84.19;101715.03;1747520;82;21417;-68
2021/05/26 01:04:45;;;;;;;28.00;14.58;;;;;;;16.06;83.79;101719.56;1747840;82;21333;-67
2021/05/26 01:07:18;;;;;;;21.95;14.80;;;;;;;16.16;83.62;101718.23;1752941;82;21379;-67
2021/05/26 01:09:50;;;;;;;20.88;14.28;;;;;;;16.24;83.27;101719.11;1752782;82;21337;-66
2021/05/26 01:12:26;;;;;;;20.37;13.75;;;;;;;16.26;82.78;101712.11;1752737;82;21197;-67
2021/05/26 01:15:00;;;;;;;27.20;14.03;;;;;;;16.27;82.63;101705.97;1752617;82;21170;-67
2021/05/26 01:17:37;;;;;;;21.65;14.00;;;;;;;16.28;82.59;101696.44;1752725;82;21328;-67
2021/05/26 01:20:13;;;;;;;20.95;15.00;;;;;;;16.30;82.45;101699.25;1752663;82;21344;-67
2021/05/26 01:22:47;;;;;;;22.90;15.03;;;;;;;16.30;82.28;101699.80;1752919;82;21270;-67
2021/05/26 01:25:21;;;;;;;23.83;14.15;;;;;;;16.25;82.35;101702.57;1752762;82;21349;-66
2021/05/26 01:27:54;;;;;;;22.87;15.63;;;;;;;16.16;82.85;101709.83;1719371;82;21709;-66
2021/05/26 01:30:28;;;;;;;20.85;12.80;;;;;;;16.08;83.32;101707.52;1733586;82;21194;-67
2021/05/26 01:33:00;;;;;;;19.20;13.93;;;;;;;16.05;84.05;101706.68;1747238;82;21403;-66
2021/05/26 01:35:35;;;;;;;18.52;14.53;;;;;;;16.01;84.92;101701.32;1747493;82;21360;-67
2021/05/26 01:38:07;;;;;;;21.57;14.65;;;;;;;15.96;85.04;101708.33;1747563;82;21332;-67
2021/05/26 01:40:40;;;;;;;23.85;14.68;;;;;;;15.97;85.12;101712.81;1745029;82;21383;-67
2021/05/26 01:43:13;;;;;;;23.47;15.87;;;;;;;16.02;84.91;101713.39;1747833;82;21324;-67
2021/05/26 01:45:46;;;;;;;23.92;17.65;;;;;;;16.07;84.71;101710.05;1737991;82;21442;-67
2021/05/26 01:48:21;;;;;;;21.10;16.48;;;;;;;16.13;84.48;101716.81;1734188;82;21237;-67
2021/05/26 01:50:53;;;;;;;24.05;16.37;;;;;;;16.20;83.94;101723.56;1758184;81;21343;-68
2021/05/26 01:53:29;;;;;;;20.60;15.28;;;;;;;16.22;83.63;101719.95;1714301;83;21364;-67
2021/05/26 01:56:02;;;;;;;22.30;16.73;;;;;;;16.25;83.44;101726.39;1732399;80;21323;-68
2021/05/26 01:58:36;;;;;;;23.22;17.52;;;;;;;16.28;83.20;101726.69;1702434;83;21253;-67
2021/05/26 02:01:11;;;;;;;22.27;16.52;;;;;;;16.33;83.00;101727.30;1747759;81;21366;-67
2021/05/26 02:03:44;;;;;;;26.02;15.28;;;;;;;16.33;82.70;101725.90;1695904;84;21254;-67
2021/05/26 02:06:18;;;;;;;22.48;14.45;;;;;;;16.32;82.49;101728.39;1739672;80;21339;-67
2021/05/26 02:08:51;;;;;;;;;;;;;;;16.28;82.76;101731.47;1705759;83;21889;-68
2021/05/26 02:14:17;;;;;;;20.27;13.55;;;;;;;16.26;83.26;101729.48;1745814;81;21299;-67
2021/05/26 02:16:52;;;;;;;18.98;12.63;;;;;;;16.21;83.68;101733.68;1738525;80;21643;-67
2021/05/26 02:19:25;;;;;;;19.85;13.62;;;;;;;16.21;84.99;101738.71;1739653;82;21189;-66
2021/05/26 02:21:59;;;;;;;20.97;13.32;;;;;;;16.18;85.72;101730.86;1751569;82;21339;-68
2021/05/26 02:24:34;;;;;;;21.80;15.88;;;;;;;16.16;86.34;101740.08;1751540;82;21142;-66
2021/05/26 02:27:08;;;;;;;23.12;14.90;;;;;;;16.12;86.81;101733.07;1751373;82;21426;-67
2021/05/26 02:29:43;;;;;;;25.85;13.98;;;;;;;16.14;87.34;101734.45;1751688;82;21674;-65
2021/05/26 02:32:16;;;;;;;23.52;13.65;;;;;;;16.14;87.52;101731.66;1751482;82;21332;-66
2021/05/26 02:34:51;;;;;;;26.25;15.05;;;;;;;16.13;87.86;101736.98;1751542;82;21741;-66
2021/05/26 02:37:24;;;;;;;24.55;13.78;;;;;;;16.15;88.34;101735.59;1751302;82;21367;-66
2021/05/26 02:39:57;;;;;;;23.42;14.68;;;;;;;16.18;88.40;101733.66;1751821;82;21323;-66
2021/05/26 02:42:29;;;;;;;22.82;14.05;;;;;;;16.16;88.57;101736.45;1751388;82;21406;-65
2021/05/26 02:45:02;;;;;;;26.07;15.58;;;;;;;16.14;88.85;101739.52;1751593;82;21323;-68
2021/05/26 02:47:35;;;;;;;43.28;16.35;;;;;;;16.18;89.09;101739.27;1751510;81;21308;-66
2021/05/26 02:50:16;;;;;;;20.25;14.40;;;;;;;16.31;89.21;101740.17;1751551;82;21338;-67
2021/05/26 02:52:46;;;;;;;46.30;16.97;;;;;;;16.43;88.97;101732.97;1751726;82;21209;-68
2021/05/26 02:55:22;;;;;;;26.35;15.03;;;;;;;16.57;88.75;101735.56;1751523;82;21328;-67
2021/05/26 02:58:12;;;;;;;76.02;16.27;;;;;;;16.69;88.19;101734.74;1751403;82;21360;-65
2021/05/26 03:01:03;;;;;;;81.78;17.52;;;;;;;16.81;87.71;101729.73;1751727;82;21335;-66
2021/05/26 03:03:46;;;;;;;66.65;18.20;;;;;;;16.91;87.14;101732.58;1747608;82;21441;-65
2021/05/26 03:06:21;;;;;;;62.53;17.35;;;;;;;17.01;86.63;101743.84;1750960;82;21399;-67
2021/05/26 03:08:54;;;;;;;41.00;16.65;;;;;;;17.08;86.13;101735.98;1751355;82;21846;-67
2021/05/26 03:11:30;;;;;;;35.90;16.20;;;;;;;17.12;85.57;101737.95;1733990;82;21813;-66
2021/05/26 03:14:17;;;;;;;16.25;12.10;;;;;;;17.14;85.26;101741.31;1742477;82;21351;-67
2021/05/26 03:16:52;;;;;;;18.23;11.05;;;;;;;17.15;85.00;101738.81;1739662;81;21318;-67
2021/05/26 03:19:25;;;;;;;;;;;;;;;17.06;85.15;101743.85;1762842;80;21382;-67
2021/05/26 03:21:59;;;;;;;14.93;9.50;;;;;;;16.99;85.55;101741.84;1740505;80;20286;-66
2021/05/26 03:24:51;;;;;;;18.80;10.03;;;;;;;16.98;85.76;101743.83;1754460;82;21177;-66
2021/05/26 03:27:27;;;;;;;28.30;9.43;;;;;;;16.96;86.00;101741.02;1726221;83;21235;-66
2021/05/26 03:29:57;;;;;;;14.03;8.70;;;;;;;16.92;86.13;101754.75;1741515;82;21386;-67
2021/05/26 03:32:30;;;;;;;10.88;7.62;;;;;;;16.90;86.55;101753.34;1724989;82;21314;-67
2021/05/26 03:35:03;;;;;;;11.70;6.95;;;;;;;16.94;86.87;101755.89;1746978;80;21335;-67
2021/05/26 03:37:36;;;;;;;11.85;6.55;;;;;;;16.97;86.81;101758.98;1732504;80;21192;-64
2021/05/26 03:40:11;;;;;;;21.87;7.25;;;;;;;17.01;87.03;101755.89;1747491;80;21338;-68
2021/05/26 03:42:46;;;;;;;10.90;7.92;;;;;;;17.07;87.20;101753.95;1733958;81;21158;-67
2021/05/26 03:45:27;;;;;;;15.63;9.70;;;;;;;17.13;87.24;101762.67;1733129;82;21201;-66
2021/05/26 03:48:00;;;;;;;11.65;8.03;;;;;;;17.23;87.40;101759.31;1738470;81;21371;-65
2021/05/26 03:50:34;;;;;;;9.83;6.97;;;;;;;17.38;87.71;101769.17;1726999;81;21714;-66
2021/05/26 03:53:07;;;;;;;;;;;;;;;17.50;87.73;101773.14;1744511;81;21173;-65
2021/05/26 03:55:40;;;;;;;15.25;6.80;;;;;;;17.61;87.18;101767.81;1745086;81;20502;-66
2021/05/26 03:58:15;;;;;;;11.25;6.72;;;;;;;17.64;86.38;101783.55;1723234;83;21320;-68
2021/05/26 04:00:48;;;;;;;12.58;6.45;;;;;;;17.69;86.04;101772.86;1728882;81;21261;-66
2021/05/26 04:03:23;;;;;;;11.40;5.37;;;;;;;17.82;86.68;101770.34;1743879;81;21307;-68
2021/05/26 04:05:58;;;;;;;11.05;6.00;;;;;;;17.97;86.29;101766.64;1719952;81;21849;-67
2021/05/26 04:08:31;;;;;;;17.70;7.28;;;;;;;18.08;85.73;101772.53;1737948;81;21343;-68
2021/05/26 04:11:04;;;;;;;;;;;;;;;18.18;85.13;101768.31;1747828;82;21145;-68
2021/05/26 04:13:41;;;;;;;10.80;5.70;;;;;;;18.31;84.91;101766.34;1717149;83;20259;-67
2021/05/26 04:16:16;;;;;;;6.95;5.30;;;;;;;18.52;84.26;101768.80;1729746;82;21161;-67
2021/05/26 04:18:52;;;;;;;12.53;5.53;;;;;;;18.86;83.70;101775.42;1724279;81;21202;-68
2021/05/26 04:21:25;;;;;;;8.30;6.15;;;;;;;19.20;82.04;101772.70;1725998;83;21344;-67
2021/05/26 04:23:58;;;;;;;;;;;;;;;19.60;80.81;101778.06;1728968;82;21374;-67
2021/05/26 04:26:31;;;;;;;9.88;5.40;;;;;;;20.13;80.02;101788.34;1702985;83;20579;-66
2021/05/26 04:29:04;;;;;;;11.87;5.10;;;;;;;20.79;78.71;101799.18;1727093;81;21246;-68
2021/05/26 04:31:38;;;;;;;7.28;5.12;;;;;;;21.36;76.30;101802.66;1747748;82;21296;-68
2021/05/26 04:34:11;;;;;;;10.35;4.50;;;;;;;21.95;74.31;101795.78;1756962;81;21376;-68
2021/05/26 04:36:44;;;;;;;5.77;4.07;;;;;;;22.56;72.50;101798.38;1746912;82;21169;-66
2021/05/26 04:39:17;;;;;;;7.33;3.70;;;;;;;23.19;69.52;101796.48;1740329;82;21367;-68
2021/05/26 04:41:49;;;;;;;7.22;4.20;;;;;;;23.61;66.32;101790.39;1739385;82;21351;-70
2021/05/26 04:44:22;;;;;;;12.27;4.50;;;;;;;24.02;65.49;101791.09;1735375;82;21908;-69
2021/05/26 04:46:55;;;;;;;6.87;2.92;;;;;;;24.34;62.22;101792.20;1748324;82;21209;-70
2021/05/26 04:49:28;;;;;;;;;;;;;;;24.38;60.63;101785.53;1758261;82;21153;-67
2021/05/26 04:52:00;;;;;;;16.02;3.62;;;;;;;24.34;58.94;101795.05;1746688;82;20245;-67
2021/05/26 04:54:34;;;;;;;24.20;5.40;;;;;;;24.32;60.39;101793.94;1738723;82;21252;-67
2021/05/26 04:57:07;;;;;;;9.48;3.72;;;;;;;24.68;60.96;101801.77;1749140;81;21394;-67
2021/05/26 04:59:41;;;;;;;6.17;3.22;;;;;;;24.98;58.58;101797.19;1715885;82;22007;-68
2021/05/26 05:02:14;;;;;;;7.95;2.92;;;;;;;25.08;57.29;101797.73;1740795;82;21232;-67
2021/05/26 05:04:46;;;;;;;17.70;4.40;;;;;;;25.45;55.60;101807.13;1739281;82;21292;-67
2021/05/26 05:07:20;;;;;;;7.65;3.15;;;;;;;25.58;56.42;101808.98;1745574;80;21659;-66
2021/05/26 05:09:53;;;;;;;17.02;4.10;;;;;;;25.75;54.91;101799.61;1725871;83;21209;-67
2021/05/26 05:12:28;;;;;;;10.75;3.17;;;;;;;25.83;55.19;101806.73;1725930;83;21704;-68
2021/05/26 05:15:01;;;;;;;5.42;3.10;;;;;;;26.04;54.23;101809.77;1726057;83;21205;-68
2021/05/26 05:17:34;;;;;;;4.60;2.52;;;;;;;26.23;53.45;101806.81;1726362;83;21201;-69
2021/05/26 05:20:08;;;;;;;7.72;3.33;;;;;;;26.43;52.27;101796.69;1725776;83;21225;-68
2021/05/26 05:22:41;;;;;;;8.18;3.17;;;;;;;26.53;52.52;101789.20;1725822;83;21399;-68
2021/05/26 05:25:14;;;;;;;;;;;;;;;26.77;52.50;101783.17;1738259;81;21265;-67
2021/05/26 05:27:46;;;;;;;6.47;3.27;;;;;;;27.08;51.57;101789.98;1752973;82;20601;-67
2021/05/26 05:30:19;;;;;;;9.83;3.02;;;;;;;27.25;50.63;101788.49;1752944;80;21242;-67
2021/05/26 05:32:51;;;;;;;;;;;;;;;27.31;50.54;101798.53;1734093;81;21353;-66
2021/05/26 05:35:24;;;;;;;5.72;2.80;;;;;;;27.37;49.04;101806.52;1731410;83;20179;-69
2021/05/26 05:37:58;;;;;;;6.45;3.60;;;;;;;27.18;49.64;101818.17;1731753;83;21333;-68
2021/05/26 05:40:30;;;;;;;7.10;3.70;;;;;;;27.25;48.89;101819.88;1752665;82;21340;-69
2021/05/26 05:43:03;;;;;;;8.28;3.17;;;;;;;26.91;48.82;101820.87;1752953;82;21396;-67
2021/05/26 05:45:35;;;;;;;6.40;2.80;;;;;;;26.98;50.46;101819.73;1751377;82;21349;-67
2021/05/26 05:48:08;;;;;;;9.60;3.17;;;;;;;27.38;50.48;101816.17;1769039;81;21158;-66
2021/05/26 05:50:41;;;;;;;;;;;;;;;27.79;49.35;101819.09;1739582;82;21349;-69
2021/05/26 05:53:14;;;;;;;9.33;3.60;;;;;;;28.22;48.24;101819.54;1741023;81;20222;-70
2021/05/26 05:55:47;;;;;;;8.05;3.22;;;;;;;28.58;47.08;101825.98;1718671;83;21260;-68
2021/05/26 05:58:29;;;;;;;5.83;3.17;;;;;;;28.73;46.64;101817.55;1743150;82;21364;-68
2021/05/26 06:01:02;;;;;;;4.40;3.22;;;;;;;28.94;45.87;101816.87;1729735;83;21411;-69
2021/05/26 06:03:36;;;;;;;5.95;4.30;;;;;;;29.01;44.60;101822.88;1742868;82;21945;-69
2021/05/26 06:06:09;;;;;;;6.65;3.45;;;;;;;28.75;45.37;101818.05;1744787;81;21207;-67
2021/05/26 06:08:41;;;;;;;6.30;3.50;;;;;;;28.78;45.15;101818.75;1747597;82;21388;-67
2021/05/26 06:11:15;;;;;;;9.95;3.80;;;;;;;28.49;44.35;101828.12;1747641;82;21258;-68
2021/05/26 06:13:49;;;;;;;5.80;4.00;;;;;;;28.27;45.12;101835.05;1747559;82;21440;-67
2021/05/26 06:16:22;;;;;;;6.08;3.40;;;;;;;28.28;45.87;101845.28;1731695;82;21186;-66
2021/05/26 06:18:54;;;;;;;7.05;3.62;;;;;;;28.45;45.01;101850.87;1769273;81;21187;-67
2021/05/26 06:21:28;;;;;;;4.55;3.25;;;;;;;28.51;45.43;101861.48;1739378;82;21274;-68
2021/05/26 06:24:01;;;;;;;7.72;3.80;;;;;;;28.81;45.11;101868.09;1752717;82;21332;-67
2021/05/26 06:26:34;;;;;;;9.73;3.12;;;;;;;28.85;43.38;101862.53;1766970;80;21404;-67
2021/05/26 06:29:07;;;;;;;10.80;3.98;;;;;;;28.63;44.56;101865.80;1727361;83;21326;-67
2021/05/26 06:31:40;;;;;;;11.45;3.80;;;;;;;28.64;44.61;101854.02;1727178;83;21409;-67
2021/05/26 06:34:13;;;;;;;9.40;3.20;;;;;;;28.68;44.01;101852.09;1727432;83;21402;-67
2021/05/26 06:36:46;;;;;;;12.43;3.85;;;;;;;28.55;44.99;101855.30;1728963;82;21248;-67
2021/05/26 06:39:21;;;;;;;14.47;4.97;;;;;;;28.63;44.93;101855.21;1752956;82;21186;-68
2021/05/26 06:41:53;;;;;;;10.50;4.12;;;;;;;28.68;44.30;101864.97;1771843;81;21324;-69
2021/05/26 06:44:26;;;;;;;9.38;3.70;;;;;;;28.35;44.48;101859.84;1753117;82;21194;-66
2021/05/26 06:46:59;;;;;;;7.33;4.17;;;;;;;28.33;44.52;101855.66;1740264;82;21405;-72
2021/05/26 06:49:32;;;;;;;9.00;4.72;;;;;;;28.07;44.72;101859.36;1695175;84;21204;-69
2021/05/26 06:52:05;;;;;;;7.67;4.55;;;;;;;28.21;44.90;101859.31;1705806;83;21867;-66
2021/05/26 06:54:38;;;;;;;12.93;3.37;;;;;;;28.21;44.90;101859.31;1719516;83;21433;-66
2021/05/26 06:57:11;;;;;;;9.93;4.28;;;;;;;28.16;45.45;101865.24;1712752;82;21352;-64
2021/05/26 06:59:44;;;;;;;10.60;3.75;;;;;;;28.12;44.71;101866.30;1736242;82;21269;-66
2021/05/26 07:02:16;;;;;;;7.15;3.70;;;;;;;28.03;45.41;101874.94;1745464;81;21295;-65
2021/05/26 07:04:49;;;;;;;22.93;4.53;;;;;;;28.04;45.64;101871.47;1728202;81;21365;-66
2021/05/26 07:07:22;;;;;;;9.05;3.98;;;;;;;28.10;44.91;101868.65;1719707;82;21189;-66
2021/05/26 07:09:56;;;;;;;7.53;4.33;;;;;;;28.02;45.29;101858.98;1717401;82;21271;-65
2021/05/26 07:12:30;;;;;;;12.18;4.50;;;;;;;28.15;45.82;101860.72;1753641;79;21672;-69
2021/05/26 07:15:06;;;;;;;16.27;4.40;;;;;;;28.32;45.52;101866.25;1795437;77;21197;-69
2021/05/26 07:17:40;;;;;;;9.95;4.17;;;;;;;28.47;45.26;101862.78;1795778;79;21191;-65
2021/05/26 07:20:14;;;;;;;9.48;4.12;;;;;;;28.58;45.26;101865.44;1793819;78;21191;-67
2021/05/26 07:22:47;;;;;;;6.33;3.80;;;;;;;28.69;44.11;101865.81;1735242;81;22473;-67
2021/05/26 07:25:22;;;;;;;7.97;3.98;;;;;;;28.70;44.30;101865.48;1793031;79;21739;-67
2021/05/26 07:27:55;;;;;;;7.20;3.80;;;;;;;28.71;44.00;101882.02;1797768;79;21395;-67
2021/05/26 07:30:27;;;;;;;12.37;3.47;;;;;;;28.63;43.99;101882.38;1795882;79;21207;-67
2021/05/26 07:33:00;;;;;;;14.07;3.37;;;;;;;28.55;43.89;101881.86;1795123;79;21408;-66
2021/05/26 07:35:33;;;;;;;15.85;3.95;;;;;;;28.39;43.79;101886.58;1789271;79;21941;-66
2021/05/26 07:38:05;;;;;;;;;;;;;;;28.34;44.04;101885.91;1803836;79;21361;-67
2021/05/26 07:40:38;;;;;;;8.63;3.67;;;;;;;28.40;44.12;101885.39;1785947;79;20227;-69
2021/05/26 07:43:14;;;;;;;10.60;3.87;;;;;;;28.39;44.05;101882.88;1787260;77;21396;-66
2021/05/26 07:45:47;;;;;;;6.65;3.42;;;;;;;28.36;44.43;101877.84;1794227;77;21345;-67
2021/05/26 07:48:20;;;;;;;9.80;3.62;;;;;;;28.33;44.20;101875.09;1790244;77;21368;-70
2021/05/26 07:50:53;;;;;;;7.67;4.10;;;;;;;28.20;44.88;101871.91;1726867;81;21294;-69
2021/05/26 07:53:27;;;;;;;9.13;3.90;;;;;;;28.31;44.37;101867.44;1787047;79;21337;-68
2021/05/26 07:56:02;;;;;;;13.05;4.92;;;;;;;28.20;44.26;101866.19;1795302;79;21296;-68
2021/05/26 07:58:37;;;;;;;5.60;3.92;;;;;;;28.16;45.08;101862.38;1787230;79;21802;-69
2021/05/26 08:01:10;;;;;;;6.17;4.22;;;;;;;28.20;44.11;101870.48;1795905;79;21895;-68
2021/05/26 08:03:44;;;;;;;10.23;4.12;;;;;;;28.06;44.92;101869.12;1793506;79;21844;-69
2021/05/26 08:06:25;;;;;;;7.62;4.72;;;;;;;27.88;44.26;101869.84;1797595;77;21313;-68
2021/05/26 08:08:57;;;;;;;6.87;4.55;;;;;;;27.71;44.95;101869.92;1791406;78;21202;-70
2021/05/26 08:11:29;;;;;;;14.40;4.83;;;;;;;27.62;45.39;101875.45;1792058;79;21370;-69
2021/05/26 08:14:01;;;;;;;10.25;4.67;;;;;;;27.56;45.31;101866.27;1782921;79;21183;-67
2021/05/26 08:16:36;;;;;;;11.18;5.03;;;;;;;27.50;45.20;101867.65;1781573;79;21228;-68
2021/05/26 08:19:09;;;;;;;7.15;5.28;;;;;;;27.42;45.08;101861.17;1797713;79;21287;-68
2021/05/26 08:21:42;;;;;;;9.83;5.10;;;;;;;27.33;44.53;101864.89;1790474;79;21290;-68
2021/05/26 08:24:16;;;;;;;8.15;5.62;;;;;;;27.06;44.13;101863.67;1789697;79;21232;-72
2021/05/26 08:26:52;;;;;;;6.87;4.72;;;;;;;26.67;44.40;101853.98;1790788;79;21287;-74
2021/05/26 08:29:26;;;;;;;12.15;5.12;;;;;;;26.24;44.41;101845.52;1794413;79;21203;-66
2021/05/26 08:31:59;;;;;;;6.90;5.30;;;;;;;25.83;46.06;101848.58;1794536;79;21227;-70
2021/05/26 08:34:31;;;;;;;11.70;5.78;;;;;;;25.72;47.05;101845.84;1788938;79;21314;-67
2021/05/26 08:37:06;;;;;;;47.58;6.72;;;;;;;25.66;47.16;101844.33;1792145;79;21328;-67
2021/05/26 08:39:40;;;;;;;15.40;4.92;;;;;;;25.65;48.12;101856.28;1794236;79;21270;-67
2021/05/26 08:42:12;;;;;;;9.88;5.55;;;;;;;25.69;47.60;101857.88;1789517;79;21200;-69
2021/05/26 08:44:49;;;;;;;8.03;4.28;;;;;;;25.61;47.62;101852.41;1777074;79;21682;-67
2021/05/26 08:47:22;;;;;;;10.55;5.60;;;;;;;25.47;47.92;101846.04;1777478;79;21342;-69
2021/05/26 08:49:56;;;;;;;8.50;5.53;;;;;;;25.34;48.28;101847.02;1777200;79;21515;-68
2021/05/26 08:52:28;;;;;;;19.42;5.53;;;;;;;25.33;48.59;101843.08;1777277;79;21199;-69
2021/05/26 08:55:00;;;;;;;9.68;4.72;;;;;;;25.34;48.64;101851.86;1790175;79;21299;-72
2021/05/26 08:57:32;;;;;;;15.38;5.65;;;;;;;25.40;49.02;101853.38;1722242;82;21787;-71
2021/05/26 09:00:06;;;;;;;6.28;4.55;;;;;;;25.38;49.33;101860.00;1791392;79;21163;-67
2021/05/26 09:02:39;;;;;;;11.45;5.17;;;;;;;25.36;48.58;101865.19;1788529;79;21313;-69
2021/05/26 09:05:34;;;;;;;10.70;5.65;;;;;;;25.24;48.25;101859.30;1780315;79;21204;-68
2021/05/26 09:08:20;;;;;;;5.17;4.62;;;;;;;25.10;48.51;101857.95;1804217;79;21791;-67
2021/05/26 09:11:01;;;;;;;10.45;5.22;;;;;;;24.97;48.75;101864.60;1803844;78;21163;-68
2021/05/26 09:13:35;;;;;;;7.08;4.15;;;;;;;24.70;49.00;101861.13;1806180;79;21371;-71
2021/05/26 09:16:15;;;;;;;8.05;5.03;;;;;;;24.55;50.02;101865.75;1805674;79;21700;-67
2021/05/26 09:19:00;;;;;;;7.42;5.00;;;;;;;24.52;50.06;101862.16;1751241;79;21280;-68
2021/05/26 09:21:55;;;;;;;13.90;5.45;;;;;;;24.45;50.24;101875.98;1763773;79;21305;-68
2021/05/26 09:24:28;;;;;;;16.27;5.85;;;;;;;24.33;50.41;101865.80;1776946;79;21231;-74
2021/05/26 09:27:13;;;;;;;8.75;4.72;;;;;;;24.26;50.95;101875.36;1798748;79;21326;-68
2021/05/26 09:29:45;;;;;;;14.40;4.95;;;;;;;24.25;50.77;101873.69;1809733;79;21203;-67
2021/05/26 09:32:34;;;;;;;8.98;4.87;;;;;;;24.15;50.60;101873.33;1809430;79;21811;-67
2021/05/26 09:35:02;;;;;;;8.30;5.03;;;;;;;24.01;51.09;101869.72;1807502;79;21328;-66
2021/05/26 09:37:36;;;;;;;6.50;4.10;;;;;;;24.02;51.53;101872.81;1801180;79;21360;-73
2021/05/26 09:40:15;;;;;;;6.67;4.53;;;;;;;24.10;51.44;101872.63;1802651;79;21211;-71
2021/05/26 09:42:52;;;;;;;13.68;4.97;;;;;;;24.13;51.35;101874.84;1799105;79;21209;-69
2021/05/26 09:45:27;;;;;;;6.25;4.33;;;;;;;24.15;51.30;101866.23;1739037;82;21739;-68
2021/05/26 09:48:01;;;;;;;9.73;4.80;;;;;;;24.20;51.61;101874.63;1764483;80;21743;-68
2021/05/26 09:50:37;;;;;;;7.72;4.35;;;;;;;24.29;52.34;101871.86;1728573;82;21489;-66
2021/05/26 09:55:48;;;;;;;10.45;4.08;;;;;;;24.47;52.02;101866.55;1798507;79;21405;-75
2021/05/26 09:58:20;;;;;;;9.33;5.47;;;;;;;24.51;53.17;101865.56;1804700;79;21300;-67
2021/05/26 10:00:52;;;;;;;8.53;5.35;;;;;;;24.53;53.50;101872.35;1796863;77;21429;-67
2021/05/26 10:03:25;;;;;;;9.87;4.73;;;;;;;24.53;51.90;101855.31;1799159;79;21371;-67
2021/05/26 10:05:57;;;;;;;6.30;4.95;;;;;;;24.49;53.02;101858.53;1800265;79;21430;-68
2021/05/26 10:08:48;;;;;;;11.30;5.45;;;;;;;24.43;52.47;101854.15;1802356;79;21436;-67
2021/05/26 10:11:25;;;;;;;6.50;5.00;;;;;;;24.42;52.79;101858.16;1801209;77;21178;-68
2021/05/26 10:14:01;;;;;;;11.93;5.28;;;;;;;24.43;53.70;101858.41;1798844;79;21421;-69
2021/05/26 10:16:34;;;;;;;11.20;6.65;;;;;;;24.43;53.70;101851.30;1789633;79;21229;-69
2021/05/26 10:19:14;;;;;;;10.88;6.08;;;;;;;24.45;53.71;101839.06;1787196;78;21647;-71
2021/05/26 10:21:48;;;;;;;10.72;6.33;;;;;;;24.48;53.51;101832.70;1791428;78;21365;-70
2021/05/26 10:24:23;;;;;;;19.80;6.95;;;;;;;24.50;53.49;101831.83;1776051;79;22231;-70
2021/05/26 10:27:06;;;;;;;14.70;8.50;;;;;;;24.51;53.23;101829.23;1782732;79;21966;-72
2021/05/26 10:29:40;;;;;;;16.73;8.23;;;;;;;24.54;53.03;101830.84;1781509;78;21338;-74
2021/05/26 10:32:24;;;;;;;14.03;8.03;;;;;;;24.52;52.75;101837.44;1782197;79;21321;-73
2021/05/26 10:35:03;;;;;;;16.17;7.87;;;;;;;24.48;52.90;101841.23;1779981;78;22623;-67
2021/05/26 10:37:38;;;;;;;10.72;5.95;;;;;;;24.42;52.54;101842.53;1783598;78;21321;-66
2021/05/26 10:43:22;;;;;;;13.30;6.00;;;;;;;24.26;53.26;101845.54;1775858;79;21358;-67
2021/05/26 10:45:57;;;;;;;11.12;5.83;;;;;;;24.17;52.73;101838.94;1785919;79;21213;-72
2021/05/26 10:48:47;;;;;;;13.60;6.67;;;;;;;24.12;52.04;101841.91;1791022;78;21421;-68
2021/05/26 10:51:20;;;;;;;11.35;5.80;;;;;;;24.06;52.60;101834.11;1796215;79;21361;-66
2021/05/26 10:53:53;;;;;;;11.83;5.42;;;;;;;24.03;52.84;101830.48;1792331;79;21215;-66
2021/05/26 10:56:40;;;;;;;7.40;5.60;;;;;;;24.06;52.92;101833.27;1758642;81;21207;-74
2021/05/26 10:59:16;;;;;;;7.45;5.58;;;;;;;24.11;52.53;101829.73;1690103;84;21270;-69
2021/05/26 11:02:09;;;;;;;10.00;5.10;;;;;;;24.13;51.69;101830.83;1763823;79;21207;-74
2021/05/26 11:04:42;;;;;;;10.88;6.05;;;;;;;24.08;51.37;101830.36;1761097;81;21283;-74
2021/05/26 11:07:23;;;;;;;9.53;5.87;;;;;;;24.03;51.74;101829.06;1692878;83;21222;-74
2021/05/26 11:10:06;;;;;;;9.63;5.15;;;;;;;24.02;51.58;101827.99;1752991;81;21748;-73
2021/05/26 11:13:00;;;;;;;9.15;5.75;;;;;;;23.98;51.36;101824.11;1755562;79;21326;-70
2021/05/26 11:15:43;;;;;;;13.53;5.83;;;;;;;23.93;51.86;101819.41;1754639;81;21390;-71
2021/05/26 11:18:29;;;;;;;8.38;5.40;;;;;;;23.94;52.52;101815.97;1750815;79;21375;-72
2021/05/26 11:20:53;;;;;;;11.95;6.42;;;;;;;23.99;53.20;101817.27;1755183;81;21307;-70
2021/05/26 11:23:26;;;;;;;11.10;6.37;;;;;;;24.02;53.14;101813.20;1751880;81;21337;-68
2021/05/26 11:25:59;;;;;;;12.27;6.87;;;;;;;24.07;53.07;101813.07;1758288;81;21462;-72
2021/05/26 11:28:34;;;;;;;13.68;6.05;;;;;;;24.11;53.01;101818.94;1761117;81;21363;-68
2021/05/26 11:31:09;;;;;;;11.50;6.30;;;;;;;24.15;53.08;101821.40;1759309;81;21333;-67
2021/05/26 11:33:58;;;;;;;12.75;5.62;;;;;;;24.17;54.09;101814.81;1762182;79;21331;-66
2021/05/26 11:36:45;;;;;;;14.58;5.87;;;;;;;24.19;54.43;101815.34;1758989;81;21412;-66
2021/05/26 11:42:29;;;;;;;9.53;6.12;;;;;;;24.17;54.08;101817.65;1757832;81;21372;-66
2021/05/26 11:45:10;;;;;;;18.45;6.15;;;;;;;24.14;54.06;101806.35;1758003;81;21831;-67
2021/05/26 11:47:48;;;;;;;10.30;6.10;;;;;;;24.13;54.03;101806.70;1760769;81;21348;-67
2021/05/26 11:50:23;;;;;;;11.55;5.83;;;;;;;24.10;54.20;101809.61;1758227;81;21365;-67
2021/05/26 11:53:13;;;;;;;14.28;5.28;;;;;;;24.06;53.97;101809.13;1759803;79;21403;-67
2021/05/26 11:55:45;;;;;;;10.00;5.40;;;;;;;24.07;54.16;101808.81;1753795;79;21746;-68
2021/05/26 12:03:48;;;;;;;7.80;5.80;;;;;;;24.03;52.84;101799.86;1686796;84;21318;-71
2021/05/26 12:06:23;;;;;;;16.60;5.40;;;;;;;24.01;52.71;101802.19;1756256;81;21253;-70
2021/05/26 12:08:58;;;;;;;8.80;5.75;;;;;;;24.00;52.65;101803.33;1757815;81;21318;-68
2021/05/26 12:11:35;;;;;;;11.03;5.85;;;;;;;23.99;53.01;101795.41;1761172;81;21826;-67